Time;durP1;ratioP1;P1;durP2;ratioP2;P2;SDS_P1;SDS_P2;PMS_P1;PMS_P2;Temp;Humidity;BMP_temperature;BMP_pressure;BME280_temperature;BME280_humidity;BME280_pressure;Samples;Min_cycle;Max_cycle;Signal;HPM_P1;HPM_P2
2022/09/25 00:01:06;;;;;;;7.93;5.10;;;15.20;99.90;;;;;;5034766;28;20227;-72
2022/09/25 00:03:32;;;;;;;5.63;4.70;;;15.30;99.90;;;;;;5046406;28;20478;-72
2022/09/25 00:06:19;;;;;;;6.70;5.70;;;15.20;99.90;;;;;;5034253;28;20498;-71
2022/09/25 00:08:45;;;;;;;5.83;4.77;;;15.30;99.90;;;;;;5047910;28;20687;-71
2022/09/25 00:11:12;;;;;;;6.03;5.43;;;15.20;99.90;;;;;;5020946;28;20462;-72
2022/09/25 00:13:39;;;;;;;5.53;4.73;;;15.20;99.90;;;;;;5054050;28;20545;-71
2022/09/25 00:16:08;;;;;;;5.93;5.33;;;15.20;99.90;;;;;;5033251;28;20462;-71
2022/09/25 00:21:18;;;;;;;6.30;5.00;;;15.20;99.90;;;;;;5051328;28;20454;-71
2022/09/25 00:23:44;;;;;;;6.20;5.57;;;15.20;99.90;;;;;;5050711;28;20466;-72
2022/09/25 00:26:12;;;;;;;5.70;5.13;;;15.20;99.90;;;;;;5041684;28;20246;-70
2022/09/25 00:28:39;;;;;;;5.47;4.97;;;15.20;99.90;;;;;;5067510;28;20506;-70
2022/09/25 00:31:06;;;;;;;7.30;6.00;;;15.20;99.90;;;;;;5040022;28;20831;-70
2022/09/25 00:33:32;;;;;;;7.50;6.17;;;15.20;99.90;;;;;;5045613;28;20536;-72
2022/09/25 00:36:05;;;;;;;8.20;6.97;;;15.20;99.90;;;;;;5051041;28;20478;-72
2022/09/25 00:38:32;;;;;;;7.40;5.90;;;15.20;99.90;;;;;;5049321;28;20454;-72
2022/09/25 00:40:59;;;;;;;9.10;6.10;;;15.10;99.90;;;;;;5050770;28;20460;-71
2022/09/25 00:43:55;;;;;;;7.43;6.47;;;15.10;99.90;;;;;;5051940;28;20550;-72
2022/09/25 00:46:41;;;;;;;7.07;5.83;;;15.10;99.90;;;;;;5033908;28;20454;-72
2022/09/25 00:49:14;;;;;;;8.67;5.80;;;15.10;99.90;;;;;;5051965;28;20462;-72
2022/09/25 00:51:44;;;;;;;7.23;5.43;;;15.00;99.90;;;;;;5042153;28;20489;-71
2022/09/25 00:54:18;;;;;;;6.73;5.83;;;15.10;99.90;;;;;;5038315;28;20993;-72
2022/09/25 00:56:47;;;;;;;6.53;5.20;;;15.10;99.90;;;;;;5043681;28;20532;-73
2022/09/25 00:59:21;;;;;;;6.30;5.50;;;15.10;99.90;;;;;;5030776;28;20452;-72
2022/09/25 01:01:47;;;;;;;7.00;5.87;;;15.10;99.90;;;;;;5040056;28;20462;-72
2022/09/25 01:04:13;;;;;;;10.03;6.80;;;15.00;99.90;;;;;;5033687;28;20458;-72
2022/09/25 01:06:39;;;;;;;8.67;5.37;;;15.10;99.90;;;;;;5016771;28;20468;-72
2022/09/25 01:09:05;;;;;;;7.03;5.80;;;15.10;99.90;;;;;;5022175;28;20497;-71
2022/09/25 01:11:31;;;;;;;5.40;4.90;;;15.00;99.90;;;;;;5034337;28;20482;-73
2022/09/25 01:14:02;;;;;;;7.80;5.90;;;15.00;99.90;;;;;;5035030;28;21013;-72
2022/09/25 01:16:51;;;;;;;8.20;6.37;;;15.00;99.90;;;;;;5034041;28;20864;-71
2022/09/25 01:19:45;;;;;;;6.00;5.40;;;15.00;99.90;;;;;;5050887;28;20477;-72
2022/09/25 01:22:45;;;;;;;4.63;4.13;;;15.00;99.90;;;;;;5046092;28;21021;-72
2022/09/25 01:25:16;;;;;;;8.10;6.13;;;15.00;99.90;;;;;;5022742;28;20476;-70
2022/09/25 01:27:53;;;;;;;7.37;4.97;;;15.00;99.90;;;;;;5037105;28;20466;-71
2022/09/25 01:30:20;;;;;;;6.30;5.50;;;15.00;99.90;;;;;;5056039;28;20580;-72
2022/09/25 01:33:06;;;;;;;8.47;6.00;;;15.00;99.90;;;;;;5030969;28;20447;-71
2022/09/25 01:35:48;;;;;;;7.47;5.57;;;15.00;99.90;;;;;;5032231;28;20438;-72
2022/09/25 01:38:20;;;;;;;7.70;5.03;;;15.00;99.90;;;;;;5042300;28;20435;-71
2022/09/25 01:41:22;;;;;;;6.13;4.93;;;14.90;99.90;;;;;;5030105;28;20439;-72
2022/09/25 01:44:09;;;;;;;7.47;4.87;;;15.00;99.90;;;;;;5039528;28;20545;-71
2022/09/25 01:46:41;;;;;;;8.00;5.27;;;15.00;99.90;;;;;;5049274;28;20450;-72
2022/09/25 01:49:19;;;;;;;5.43;4.87;;;14.90;99.90;;;;;;5049650;28;20830;-72
2022/09/25 01:51:50;;;;;;;7.00;5.50;;;14.90;99.90;;;;;;5047573;28;20459;-72
2022/09/25 01:54:28;;;;;;;5.53;5.03;;;14.90;99.90;;;;;;5064572;28;20470;-72
2022/09/25 01:57:06;;;;;;;7.97;5.93;;;14.90;99.90;;;;;;5047689;28;20545;-72
2022/09/25 02:00:02;;;;;;;6.97;4.83;;;14.90;99.90;;;;;;5046506;28;20469;-72
2022/09/25 02:02:43;;;;;;;6.10;5.10;;;14.90;99.90;;;;;;5042477;28;20450;-72
2022/09/25 02:05:20;;;;;;;6.73;5.27;;;14.90;99.90;;;;;;5030531;28;20446;-71
2022/09/25 02:08:00;;;;;;;7.23;6.20;;;14.90;99.90;;;;;;5022794;28;20848;-72
2022/09/25 02:10:37;;;;;;;6.40;5.37;;;14.90;99.90;;;;;;5048266;28;20450;-72
2022/09/25 02:13:11;;;;;;;8.07;6.13;;;14.90;99.90;;;;;;5048397;28;20538;-72
2022/09/25 02:15:42;;;;;;;7.83;5.70;;;14.90;99.90;;;;;;5057994;28;20478;-72
2022/09/25 02:21:16;;;;;;;8.40;6.20;;;14.90;99.90;;;;;;5044061;28;20480;-71
2022/09/25 02:24:03;;;;;;;8.07;6.10;;;14.90;99.90;;;;;;5048225;28;20991;-72
2022/09/25 02:26:32;;;;;;;8.30;5.73;;;14.90;99.90;;;;;;5049686;28;20515;-72
2022/09/25 02:28:58;;;;;;;9.37;7.30;;;14.90;99.90;;;;;;5046792;28;20512;-72
2022/09/25 02:31:47;;;;;;;8.07;6.67;;;14.80;99.90;;;;;;5032273;28;20537;-72
2022/09/25 02:34:13;;;;;;;8.80;6.23;;;14.80;99.90;;;;;;5031459;28;20443;-71
2022/09/25 02:36:38;;;;;;;10.97;6.90;;;14.80;99.90;;;;;;5049010;28;20533;-72
2022/09/25 02:39:07;;;;;;;8.27;6.03;;;14.80;99.90;;;;;;5049542;28;20256;-70
2022/09/25 02:41:45;;;;;;;10.90;7.07;;;14.80;99.90;;;;;;5048405;28;20231;-72
2022/09/25 02:44:29;;;;;;;10.77;7.30;;;14.80;99.90;;;;;;5048502;28;20455;-72
2022/09/25 02:47:21;;;;;;;9.20;6.77;;;14.80;99.90;;;;;;5046514;28;20541;-72
2022/09/25 02:50:07;;;;;;;11.40;7.90;;;14.80;99.90;;;;;;5043855;28;20458;-72
2022/09/25 02:52:33;;;;;;;10.47;7.37;;;14.80;99.90;;;;;;5042906;28;21015;-72
2022/09/25 02:55:15;;;;;;;9.07;6.33;;;14.80;99.90;;;;;;5046580;28;20443;-71
2022/09/25 02:57:52;;;;;;;8.67;6.27;;;14.80;99.90;;;;;;5048900;28;20241;-71
2022/09/25 03:00:22;;;;;;;10.03;6.60;;;14.80;99.90;;;;;;5049358;28;20449;-72
2022/09/25 03:02:52;;;;;;;8.40;6.30;;;14.80;99.90;;;;;;5046995;28;20834;-72
2022/09/25 03:05:20;;;;;;;7.30;5.87;;;14.80;99.90;;;;;;5028856;28;20447;-71
2022/09/25 03:10:32;;;;;;;10.77;6.13;;;14.80;99.90;;;;;;5048901;28;20458;-71
2022/09/25 03:13:16;;;;;;;6.67;5.50;;;14.80;99.90;;;;;;5047003;28;20504;-71
2022/09/25 03:15:45;;;;;;;6.50;5.40;;;14.80;99.90;;;;;;5041862;28;20493;-72
2022/09/25 03:18:13;;;;;;;9.77;6.70;;;14.80;99.90;;;;;;5048005;28;20792;-71
2022/09/25 03:20:39;;;;;;;10.40;7.93;;;14.70;99.90;;;;;;5032972;28;20443;-72
2022/09/25 03:23:06;;;;;;;7.50;6.03;;;14.70;99.90;;;;;;5035162;28;20589;-72
2022/09/25 03:25:32;;;;;;;9.00;6.63;;;14.70;99.90;;;;;;5037252;28;20450;-72
2022/09/25 03:27:58;;;;;;;8.37;6.37;;;14.70;99.90;;;;;;5037028;28;20463;-72
2022/09/25 03:30:24;;;;;;;9.87;6.50;;;14.70;99.90;;;;;;5041193;28;20816;-72
2022/09/25 03:32:49;;;;;;;7.30;6.00;;;14.70;99.90;;;;;;5052495;28;20209;-73
2022/09/25 03:35:17;;;;;;;7.27;5.23;;;14.70;99.90;;;;;;5035758;28;20599;-73
2022/09/25 03:37:43;;;;;;;8.10;5.70;;;14.70;99.90;;;;;;5029859;28;20223;-72
2022/09/25 03:40:09;;;;;;;7.47;5.47;;;14.70;99.90;;;;;;5025554;28;20488;-73
2022/09/25 03:42:35;;;;;;;8.13;5.00;;;14.70;99.90;;;;;;5037296;28;20721;-73
2022/09/25 03:45:08;;;;;;;7.60;6.07;;;14.70;99.90;;;;;;5051791;28;20966;-73
2022/09/25 03:47:34;;;;;;;7.67;5.53;;;14.70;99.90;;;;;;5020509;28;20466;-73
2022/09/25 03:50:00;;;;;;;6.50;4.83;;;14.70;99.90;;;;;;5017906;28;20447;-72
2022/09/25 03:52:26;;;;;;;6.67;4.97;;;14.70;99.90;;;;;;5052188;28;20647;-73
2022/09/25 03:54:51;;;;;;;5.67;4.17;;;14.70;99.90;;;;;;5032011;28;20275;-72
2022/09/25 03:57:17;;;;;;;5.37;4.27;;;14.60;99.90;;;;;;5039283;28;20251;-71
2022/09/25 03:59:42;;;;;;;4.40;4.00;;;14.70;99.90;;;;;;5038284;28;20224;-73
2022/09/25 04:02:09;;;;;;;4.80;4.27;;;14.70;99.90;;;;;;5035353;28;20217;-73
2022/09/25 04:04:36;;;;;;;4.30;3.90;;;14.70;99.90;;;;;;5032634;28;20204;-73
2022/09/25 04:07:02;;;;;;;5.43;4.40;;;14.70;99.90;;;;;;5036019;28;20470;-73
2022/09/25 04:09:27;;;;;;;4.70;3.97;;;14.60;99.90;;;;;;5038585;28;20517;-73
2022/09/25 04:11:54;;;;;;;4.53;3.60;;;14.60;99.90;;;;;;5037727;28;20220;-72
2022/09/25 04:14:20;;;;;;;4.47;3.83;;;14.60;99.90;;;;;;5031506;28;20733;-72
2022/09/25 04:16:46;;;;;;;4.57;4.00;;;14.60;99.90;;;;;;5037409;28;20585;-72
2022/09/25 04:19:12;;;;;;;5.13;3.50;;;14.60;99.90;;;;;;5035190;28;20710;-73
2022/09/25 04:21:37;;;;;;;5.13;3.63;;;14.60;99.90;;;;;;5034234;28;20648;-73
2022/09/25 04:26:52;;;;;;;6.20;3.30;;;14.60;99.90;;;;;;5036354;28;20247;-73
2022/09/25 04:29:20;;;;;;;5.20;3.00;;;14.60;99.90;;;;;;5040727;28;21008;-73
2022/09/25 04:33:44;;;;;;;3.03;2.63;;;14.60;99.90;;;;;;5022696;28;20458;-73
2022/09/25 04:34:34;;;;;;;2.93;2.67;;;14.60;99.90;;;;;;5054017;28;20454;-72
2022/09/25 04:37:00;;;;;;;6.20;4.20;;;14.60;99.90;;;;;;5037213;28;20832;-73
2022/09/25 04:39:26;;;;;;;2.80;2.60;;;14.60;99.90;;;;;;5038533;28;20216;-72
2022/09/25 04:41:51;;;;;;;3.13;2.83;;;14.60;99.90;;;;;;5041175;28;20250;-73
2022/09/25 04:44:17;;;;;;;3.47;3.17;;;14.60;99.90;;;;;;5042254;28;20494;-70
2022/09/25 04:46:43;;;;;;;3.93;3.13;;;14.60;99.90;;;;;;5036919;28;20290;-72
2022/09/25 04:49:08;;;;;;;4.20;3.27;;;14.60;99.90;;;;;;5035286;28;20232;-73
2022/09/25 04:51:34;;;;;;;3.40;2.97;;;14.60;99.90;;;;;;5035515;28;20315;-72
2022/09/25 04:54:00;;;;;;;6.53;4.13;;;14.60;99.90;;;;;;5031892;28;20591;-72
2022/09/25 04:56:25;;;;;;;7.30;6.33;;;14.60;99.90;;;;;;5033673;28;20728;-73
2022/09/25 04:58:51;;;;;;;5.87;5.17;;;14.60;99.90;;;;;;5038133;28;20225;-73
2022/09/25 05:01:19;;;;;;;7.97;5.40;;;14.60;99.90;;;;;;5037825;28;20700;-73
2022/09/25 05:03:52;;;;;;;6.17;5.07;;;14.60;99.90;;;;;;5033166;28;20204;-72
2022/09/25 05:06:18;;;;;;;5.80;4.83;;;14.60;99.90;;;;;;5035982;28;20459;-71
2022/09/25 05:08:51;;;;;;;5.27;4.20;;;14.60;99.90;;;;;;5035669;28;20834;-71
2022/09/25 05:11:17;;;;;;;6.00;5.40;;;14.50;99.90;;;;;;5031861;28;20509;-71
2022/09/25 05:13:45;;;;;;;6.47;5.20;;;14.50;99.90;;;;;;5044417;28;20470;-73
2022/09/25 05:16:11;;;;;;;7.03;4.90;;;14.50;99.90;;;;;;5037439;28;21768;-71
2022/09/25 05:18:36;;;;;;;5.67;4.03;;;14.50;99.90;;;;;;5039419;28;20486;-72
2022/09/25 05:21:05;;;;;;;7.20;5.67;;;14.50;99.90;;;;;;5053120;28;20220;-71
2022/09/25 05:23:31;;;;;;;7.30;5.70;;;14.50;99.90;;;;;;5038856;28;20242;-73
2022/09/25 05:26:00;;;;;;;8.27;4.70;;;14.50;99.90;;;;;;5037314;28;20466;-72
2022/09/25 05:28:27;;;;;;;5.90;4.70;;;14.50;99.90;;;;;;5036503;28;20246;-72
2022/09/25 05:30:53;;;;;;;6.07;4.77;;;14.50;99.90;;;;;;5037256;28;20973;-73
2022/09/25 05:33:19;;;;;;;4.73;4.00;;;14.50;99.90;;;;;;5033142;28;20493;-71
2022/09/25 05:35:45;;;;;;;7.07;5.03;;;14.50;99.90;;;;;;5044322;28;20466;-72
2022/09/25 05:38:11;;;;;;;7.60;4.90;;;14.50;99.90;;;;;;5035891;28;20462;-71
2022/09/25 05:40:38;;;;;;;5.80;4.90;;;14.50;99.90;;;;;;5035518;28;20529;-72
2022/09/25 05:43:04;;;;;;;6.27;5.20;;;14.50;99.90;;;;;;5034820;28;20309;-71
2022/09/25 05:45:30;;;;;;;7.53;5.27;;;14.50;99.90;;;;;;5038065;28;20818;-72
2022/09/25 05:48:05;;;;;;;7.60;5.57;;;14.50;99.90;;;;;;5037232;28;20483;-72
2022/09/25 05:50:31;;;;;;;7.07;5.70;;;14.50;99.90;;;;;;5041669;28;20272;-72
2022/09/25 05:53:01;;;;;;;5.83;4.77;;;14.50;99.90;;;;;;5052176;28;20457;-72
2022/09/25 05:55:28;;;;;;;7.20;5.67;;;14.50;99.90;;;;;;5041672;28;20542;-71
2022/09/25 05:57:59;;;;;;;7.03;4.87;;;14.50;99.90;;;;;;5039129;28;20466;-72
2022/09/25 06:00:25;;;;;;;5.90;4.60;;;14.50;99.90;;;;;;5034259;28;20468;-70
2022/09/25 06:02:52;;;;;;;5.57;4.77;;;14.50;99.90;;;;;;5036476;28;20467;-72
2022/09/25 06:05:17;;;;;;;6.37;4.63;;;14.50;99.90;;;;;;5033941;28;20700;-72
2022/09/25 06:07:43;;;;;;;6.87;4.67;;;14.40;99.90;;;;;;5041258;28;20506;-72
2022/09/25 06:10:09;;;;;;;6.23;4.70;;;14.40;99.90;;;;;;5031912;28;20213;-73
2022/09/25 06:12:35;;;;;;;7.50;5.47;;;14.40;99.90;;;;;;5039770;28;20231;-72
2022/09/25 06:15:00;;;;;;;5.00;4.13;;;14.40;99.90;;;;;;5033107;28;20454;-71
2022/09/25 06:17:26;;;;;;;5.40;4.27;;;14.40;99.90;;;;;;5041856;28;20220;-72
2022/09/25 06:19:52;;;;;;;4.60;4.00;;;14.40;99.90;;;;;;5037393;28;20247;-72
2022/09/25 06:22:17;;;;;;;6.30;4.20;;;14.40;99.90;;;;;;5034426;28;20260;-74
2022/09/25 06:24:44;;;;;;;4.43;4.03;;;14.40;99.90;;;;;;5038815;28;20250;-73
2022/09/25 06:27:09;;;;;;;5.47;4.30;;;14.40;99.90;;;;;;5033627;28;20220;-72
2022/09/25 06:29:35;;;;;;;5.00;4.10;;;14.40;99.90;;;;;;5036050;28;20473;-71
2022/09/25 06:32:02;;;;;;;5.40;3.90;;;14.40;99.90;;;;;;5031915;28;20220;-72
2022/09/25 06:34:28;;;;;;;6.87;4.40;;;14.40;99.90;;;;;;5038518;28;20228;-73
2022/09/25 06:36:53;;;;;;;5.33;4.50;;;14.40;99.90;;;;;;5038527;28;20865;-72
2022/09/25 06:39:19;;;;;;;5.83;4.67;;;14.40;99.90;;;;;;5034123;28;20723;-72
2022/09/25 06:41:45;;;;;;;5.23;3.90;;;14.40;99.90;;;;;;5033537;28;20232;-72
2022/09/25 06:44:21;;;;;;;5.27;4.53;;;14.40;99.90;;;;;;5049500;28;20455;-72
2022/09/25 06:46:53;;;;;;;5.50;4.90;;;14.40;99.90;;;;;;5035228;28;20875;-71
2022/09/25 06:49:20;;;;;;;4.80;4.00;;;14.30;99.90;;;;;;5030003;28;20479;-72
2022/09/25 06:51:46;;;;;;;8.10;5.30;;;14.30;99.90;;;;;;5032624;28;20974;-71
2022/09/25 06:54:12;;;;;;;5.90;4.80;;;14.30;99.90;;;;;;5034880;28;20483;-72
2022/09/25 06:56:38;;;;;;;5.73;4.90;;;14.30;99.90;;;;;;5038364;28;20498;-71
2022/09/25 06:59:04;;;;;;;6.03;4.60;;;14.40;99.90;;;;;;5034270;28;20628;-71
2022/09/25 07:01:29;;;;;;;6.00;4.60;;;14.40;99.90;;;;;;5030654;28;20533;-71
2022/09/25 07:03:55;;;;;;;7.50;4.90;;;14.40;99.90;;;;;;5028799;28;21011;-71
2022/09/25 07:06:25;;;;;;;6.53;4.90;;;14.40;99.90;;;;;;5032965;28;20293;-72
2022/09/25 07:08:51;;;;;;;6.70;4.83;;;14.30;99.90;;;;;;5034393;28;20227;-72
2022/09/25 07:11:20;;;;;;;10.43;5.50;;;14.40;99.90;;;;;;5035209;28;20455;-72
2022/09/25 07:13:47;;;;;;;5.37;4.20;;;14.40;99.90;;;;;;5044952;28;20500;-73
2022/09/25 07:16:14;;;;;;;5.80;5.00;;;14.40;99.90;;;;;;5026508;28;20472;-73
2022/09/25 07:18:40;;;;;;;5.83;5.10;;;14.40;99.90;;;;;;5043374;28;20489;-73
2022/09/25 07:21:09;;;;;;;6.10;5.13;;;14.40;99.90;;;;;;5039824;28;20458;-73
2022/09/25 07:23:36;;;;;;;5.97;5.27;;;14.40;99.90;;;;;;5033610;28;20512;-73
2022/09/25 07:26:11;;;;;;;6.13;4.80;;;14.40;99.90;;;;;;5039083;28;20821;-73
2022/09/25 07:28:38;;;;;;;7.20;5.80;;;14.40;99.90;;;;;;5041489;28;20862;-73
2022/09/25 07:31:21;;;;;;;5.70;4.70;;;14.40;99.90;;;;;;5031940;28;20475;-72
2022/09/25 07:33:47;;;;;;;7.63;5.40;;;14.40;99.90;;;;;;5035040;28;20469;-72
2022/09/25 07:36:14;;;;;;;14.60;8.83;;;14.40;99.90;;;;;;5035670;28;20466;-72
2022/09/25 07:38:44;;;;;;;9.83;7.80;;;14.40;99.90;;;;;;5032975;28;20459;-73
2022/09/25 07:41:12;;;;;;;11.50;8.47;;;14.40;99.90;;;;;;5035047;28;20472;-73
2022/09/25 07:43:38;;;;;;;14.33;8.23;;;14.40;99.90;;;;;;5034190;28;20470;-72
2022/09/25 07:46:05;;;;;;;10.13;6.70;;;14.40;99.90;;;;;;5032035;28;20471;-73
2022/09/25 07:48:31;;;;;;;9.30;6.80;;;14.40;99.90;;;;;;5027872;28;20470;-72
2022/09/25 07:51:04;;;;;;;10.07;6.40;;;14.40;99.90;;;;;;5033886;28;21002;-72
2022/09/25 07:53:30;;;;;;;11.40;7.33;;;14.40;99.90;;;;;;5052400;28;20478;-72
2022/09/25 07:56:03;;;;;;;8.70;6.40;;;14.40;99.90;;;;;;5048626;28;20475;-72
2022/09/25 07:58:29;;;;;;;8.40;5.97;;;14.40;99.90;;;;;;5037802;28;20220;-72
2022/09/25 08:00:59;;;;;;;7.40;6.20;;;14.40;99.90;;;;;;5035982;28;20470;-72
2022/09/25 08:03:28;;;;;;;7.03;5.30;;;14.50;99.90;;;;;;5034731;28;20220;-72
2022/09/25 08:06:04;;;;;;;6.53;4.70;;;14.50;99.90;;;;;;5033023;28;20463;-73
2022/09/25 08:08:34;;;;;;;10.00;5.63;;;14.50;99.90;;;;;;5037844;28;20475;-72
2022/09/25 08:11:08;;;;;;;4.57;4.17;;;14.50;99.90;;;;;;5039456;28;20559;-72
2022/09/25 08:13:37;;;;;;;10.10;5.23;;;14.50;99.90;;;;;;5049879;28;20461;-73
2022/09/25 08:16:04;;;;;;;5.63;5.03;;;14.50;99.90;;;;;;5041041;28;20463;-73
2022/09/25 08:18:30;;;;;;;6.20;5.17;;;14.50;99.90;;;;;;5043941;28;20459;-72
2022/09/25 08:21:02;;;;;;;7.13;5.00;;;14.50;99.90;;;;;;5036884;28;20473;-72
2022/09/25 08:23:29;;;;;;;5.60;4.63;;;14.50;99.90;;;;;;5040331;28;20824;-72
2022/09/25 08:25:54;;;;;;;6.43;5.10;;;14.50;99.90;;;;;;5040523;28;20985;-72
2022/09/25 08:28:25;;;;;;;6.30;5.30;;;14.50;99.90;;;;;;5039888;28;20466;-73
2022/09/25 08:30:56;;;;;;;6.97;5.37;;;14.50;99.90;;;;;;5027666;28;20227;-73
2022/09/25 08:33:24;;;;;;;7.10;4.43;;;14.50;99.90;;;;;;5013163;28;20514;-72
2022/09/25 08:35:55;;;;;;;6.10;5.30;;;14.50;99.90;;;;;;5039001;28;20468;-73
2022/09/25 08:38:23;;;;;;;5.10;4.60;;;14.60;99.90;;;;;;5037550;28;20454;-72
2022/09/25 08:41:14;;;;;;;6.80;5.23;;;14.50;99.90;;;;;;5050286;28;20462;-72
2022/09/25 08:43:44;;;;;;;6.57;5.43;;;14.50;99.90;;;;;;5025507;28;20458;-72
2022/09/25 08:49:37;;;;;;;5.60;4.73;;;14.60;99.90;;;;;;5066476;28;20458;-70
2022/09/25 08:52:07;;;;;;;5.53;4.93;;;14.60;99.90;;;;;;5050252;28;20549;-71
2022/09/25 08:54:34;;;;;;;8.17;6.40;;;14.60;99.90;;;;;;5051052;28;20537;-72
2022/09/25 08:57:15;;;;;;;9.50;6.33;;;14.60;99.90;;;;;;5050455;28;21012;-72
2022/09/25 08:59:46;;;;;;;7.90;6.13;;;14.60;99.90;;;;;;5046434;28;20442;-72
2022/09/25 09:02:19;;;;;;;7.83;5.77;;;14.60;99.90;;;;;;5050928;28;20466;-71
2022/09/25 09:04:52;;;;;;;7.80;5.27;;;14.70;99.90;;;;;;5051132;28;20463;-71
2022/09/25 09:07:41;;;;;;;8.53;5.10;;;14.70;99.90;;;;;;5050547;28;20851;-70
2022/09/25 09:10:27;;;;;;;7.47;6.03;;;14.70;99.90;;;;;;5055956;28;20544;-73
2022/09/25 09:12:59;;;;;;;7.50;5.50;;;14.70;99.90;;;;;;5035228;28;20454;-72
2022/09/25 09:15:47;;;;;;;7.90;6.27;;;14.70;99.90;;;;;;5044364;28;20451;-72
2022/09/25 09:18:31;;;;;;;7.00;6.00;;;14.70;99.90;;;;;;5043165;28;20494;-70
2022/09/25 09:21:15;;;;;;;6.57;5.93;;;14.80;99.90;;;;;;5046857;28;21015;-73
2022/09/25 09:24:08;;;;;;;8.57;6.43;;;14.80;99.90;;;;;;5058144;28;20442;-73
2022/09/25 09:26:48;;;;;;;9.80;7.10;;;14.80;99.90;;;;;;5023258;28;20466;-73
2022/09/25 09:29:33;;;;;;;8.30;6.50;;;14.80;99.90;;;;;;5029075;28;20451;-73
2022/09/25 09:32:29;;;;;;;10.63;6.80;;;14.80;99.90;;;;;;5044756;28;20458;-73
2022/09/25 09:35:37;;;;;;;7.90;6.40;;;14.80;99.90;;;;;;5057243;28;20447;-72
2022/09/25 09:38:19;;;;;;;11.80;7.27;;;14.80;99.90;;;;;;5026752;28;20458;-72
2022/09/25 09:40:48;;;;;;;10.17;7.67;;;14.80;99.90;;;;;;5040081;28;20516;-71
2022/09/25 09:43:35;;;;;;;8.30;6.37;;;14.80;99.90;;;;;;5054619;28;20974;-72
2022/09/25 09:47:02;;;;;;;10.10;7.43;;;14.80;99.90;;;;;;5035968;28;20455;-73
2022/09/25 09:49:46;;;;;;;10.10;7.27;;;14.80;99.90;;;;;;5034280;28;20474;-72
2022/09/25 09:52:19;;;;;;;11.77;8.03;;;14.80;99.90;;;;;;5041792;28;20466;-72
2022/09/25 09:55:00;;;;;;;9.57;6.90;;;14.90;99.90;;;;;;5037322;28;20446;-73
2022/09/25 09:57:34;;;;;;;10.83;8.23;;;14.90;99.90;;;;;;5049087;28;20462;-71
2022/09/25 10:00:06;;;;;;;12.57;8.83;;;14.90;99.90;;;;;;5032176;28;20459;-72
2022/09/25 10:02:51;;;;;;;9.63;7.63;;;14.90;99.90;;;;;;5043153;28;20512;-72
2022/09/25 10:05:31;;;;;;;12.23;7.50;;;14.90;99.90;;;;;;5047065;28;20447;-72
2022/09/25 10:07:57;;;;;;;10.33;7.23;;;14.90;99.90;;;;;;5048511;28;20466;-72
2022/09/25 10:10:47;;;;;;;11.87;8.30;;;15.00;99.90;;;;;;5032402;28;20949;-72
2022/09/25 10:13:18;;;;;;;12.07;7.77;;;15.00;99.90;;;;;;5037166;28;20228;-72
2022/09/25 10:15:59;;;;;;;11.43;7.63;;;15.00;99.90;;;;;;5043863;28;20455;-72
2022/09/25 10:18:30;;;;;;;13.07;8.67;;;15.00;99.90;;;;;;5047853;28;20458;-72
2022/09/25 10:21:02;;;;;;;11.13;7.30;;;15.00;99.90;;;;;;5060941;28;20470;-71
2022/09/25 10:23:37;;;;;;;9.43;7.43;;;15.00;99.90;;;;;;5041933;28;20446;-72
2022/09/25 10:26:21;;;;;;;10.10;7.30;;;15.00;99.90;;;;;;5047911;28;20469;-72
2022/09/25 10:28:47;;;;;;;10.87;8.23;;;15.00;99.90;;;;;;5050185;28;20555;-72
2022/09/25 10:31:15;;;;;;;13.07;7.67;;;15.10;99.90;;;;;;5043438;28;20496;-71
2022/09/25 10:33:40;;;;;;;11.00;7.10;;;15.10;99.90;;;;;;5048676;28;20215;-72
2022/09/25 10:36:06;;;;;;;11.60;7.90;;;15.10;99.90;;;;;;5032180;28;20810;-71
2022/09/25 10:38:43;;;;;;;9.70;7.03;;;15.10;99.90;;;;;;5047978;28;20219;-72
2022/09/25 10:41:12;;;;;;;10.87;7.57;;;15.10;99.90;;;;;;5030314;28;20249;-73
2022/09/25 10:43:59;;;;;;;12.90;8.30;;;15.10;99.90;;;;;;5030927;28;20461;-72
2022/09/25 10:52:05;;;;;;;8.60;7.27;;;15.10;99.90;;;;;;5044915;28;20454;-72
2022/09/25 10:54:32;;;;;;;12.40;8.80;;;15.10;99.90;;;;;;5041431;28;20988;-71
2022/09/25 10:56:58;;;;;;;12.60;8.00;;;15.10;99.90;;;;;;5044090;28;20837;-74
2022/09/25 10:59:24;;;;;;;10.63;8.13;;;15.10;99.90;;;;;;5058037;28;20454;-72
2022/09/25 11:01:53;;;;;;;12.57;8.47;;;15.10;99.90;;;;;;5044247;28;20454;-72
2022/09/25 11:04:29;;;;;;;10.20;7.13;;;15.10;99.90;;;;;;5044794;28;20446;-72
2022/09/25 11:07:03;;;;;;;11.90;7.67;;;15.10;99.90;;;;;;5038236;28;20439;-72
2022/09/25 11:09:31;;;;;;;11.13;7.67;;;15.10;99.90;;;;;;5058278;28;20459;-70
2022/09/25 11:12:20;;;;;;;10.87;7.50;;;15.10;99.90;;;;;;5039201;28;20450;-74
2022/09/25 11:15:01;;;;;;;10.43;7.37;;;15.10;99.90;;;;;;5036230;28;20453;-72
2022/09/25 11:17:40;;;;;;;10.50;8.10;;;15.10;99.90;;;;;;5028535;28;20463;-71
2022/09/25 11:20:16;;;;;;;10.57;7.20;;;15.10;99.90;;;;;;5043594;28;20451;-72
2022/09/25 11:23:03;;;;;;;10.07;6.67;;;15.10;99.90;;;;;;5055715;28;20810;-72
2022/09/25 11:25:34;;;;;;;9.17;6.67;;;15.10;99.90;;;;;;5046257;28;20450;-71
2022/09/25 11:28:05;;;;;;;8.30;6.90;;;15.10;99.90;;;;;;5051996;28;20489;-72
2022/09/25 11:30:43;;;;;;;8.13;6.30;;;15.10;99.90;;;;;;5043283;28;20469;-72
2022/09/25 11:33:31;;;;;;;9.50;5.57;;;15.10;99.90;;;;;;5041860;28;20455;-71
2022/09/25 11:36:04;;;;;;;7.03;5.33;;;15.10;99.90;;;;;;5045348;28;20443;-72
2022/09/25 11:42:02;;;;;;;5.67;4.90;;;15.20;99.90;;;;;;5041045;28;20854;-70
2022/09/25 11:44:31;;;;;;;7.57;4.87;;;15.20;99.90;;;;;;5043486;28;20552;-71
2022/09/25 11:47:23;;;;;;;5.70;5.20;;;15.20;99.90;;;;;;5049529;28;20972;-72
2022/09/25 11:49:52;;;;;;;8.63;5.90;;;15.20;99.90;;;;;;5050104;28;20454;-72
2022/09/25 11:52:27;;;;;;;8.00;5.50;;;15.20;99.90;;;;;;5038555;28;20493;-72
2022/09/25 11:55:22;;;;;;;5.33;4.83;;;15.10;99.90;;;;;;5051114;28;20453;-72
2022/09/25 11:57:54;;;;;;;8.00;5.93;;;15.10;99.90;;;;;;5042328;28;20571;-70
2022/09/25 12:00:25;;;;;;;6.60;4.30;;;15.10;99.90;;;;;;5049342;28;20453;-70
2022/09/25 12:03:15;;;;;;;5.37;4.40;;;15.00;99.90;;;;;;5051910;28;20449;-72
2022/09/25 12:06:00;;;;;;;4.83;4.00;;;15.00;99.90;;;;;;5034641;28;20953;-71
2022/09/25 12:09:03;;;;;;;7.50;4.77;;;15.00;99.90;;;;;;5051438;28;20469;-71
2022/09/25 12:11:47;;;;;;;5.47;4.73;;;15.00;99.90;;;;;;5051126;28;20512;-70
2022/09/25 12:14:35;;;;;;;5.23;3.50;;;15.00;99.90;;;;;;5046796;28;20450;-72
2022/09/25 12:17:16;;;;;;;5.43;3.53;;;14.90;99.90;;;;;;5050333;28;20454;-73
2022/09/25 12:19:57;;;;;;;3.97;3.37;;;14.90;99.90;;;;;;5059558;28;20911;-72
2022/09/25 12:22:30;;;;;;;3.10;2.80;;;14.90;99.90;;;;;;5037160;28;20468;-72
2022/09/25 12:25:19;;;;;;;3.93;3.37;;;14.90;99.90;;;;;;5053207;28;20541;-72
2022/09/25 12:27:57;;;;;;;3.47;2.73;;;15.00;99.90;;;;;;5028515;28;21000;-72
2022/09/25 12:30:44;;;;;;;2.57;2.37;;;15.00;99.90;;;;;;5042761;28;20455;-71
2022/09/25 12:33:45;;;;;;;2.33;2.13;;;14.90;99.90;;;;;;5041130;28;20552;-71
2022/09/25 12:36:19;;;;;;;4.23;2.20;;;14.90;99.90;;;;;;5034890;28;20457;-72
2022/09/25 12:39:27;;;;;;;1.90;1.80;;;14.90;99.90;;;;;;5053125;28;20451;-70
2022/09/25 12:42:06;;;;;;;1.90;1.80;;;14.80;99.90;;;;;;5040760;28;20501;-73
2022/09/25 12:44:51;;;;;;;2.47;2.27;;;14.80;99.90;;;;;;5044731;28;20443;-72
2022/09/25 12:47:20;;;;;;;2.10;2.00;;;14.70;99.90;;;;;;5042978;28;20450;-72
2022/09/25 12:49:55;;;;;;;1.90;1.77;;;14.70;99.90;;;;;;5041448;28;20504;-72
2022/09/25 12:52:28;;;;;;;2.37;1.80;;;14.70;99.90;;;;;;5039339;28;20489;-72
2022/09/25 12:55:30;;;;;;;2.77;1.90;;;14.70;99.90;;;;;;5037406;28;20960;-72
2022/09/25 12:58:24;;;;;;;2.83;2.23;;;14.70;99.90;;;;;;5037741;28;20483;-72
2022/09/25 13:01:18;;;;;;;5.70;2.13;;;14.60;99.90;;;;;;5050551;28;20461;-72
2022/09/25 13:04:01;;;;;;;2.20;2.00;;;14.70;99.90;;;;;;5037825;28;20454;-72
2022/09/25 13:07:02;;;;;;;2.27;2.07;;;14.70;99.90;;;;;;5039276;28;20460;-72
2022/09/25 13:09:43;;;;;;;2.80;2.00;;;14.70;99.90;;;;;;5038666;28;20476;-70
2022/09/25 13:12:23;;;;;;;2.33;2.13;;;14.80;99.90;;;;;;5034480;28;20978;-70
2022/09/25 13:15:06;;;;;;;2.93;2.30;;;14.70;99.90;;;;;;5039272;28;20530;-71
2022/09/25 13:17:32;;;;;;;2.80;2.07;;;14.70;99.90;;;;;;5039454;28;20508;-72
2022/09/25 13:20:25;;;;;;;3.00;2.70;;;14.70;99.90;;;;;;5051642;28;20458;-72
2022/09/25 13:22:57;;;;;;;2.87;2.07;;;14.70;99.90;;;;;;5029225;28;20224;-72
2022/09/25 13:25:24;;;;;;;2.03;1.87;;;14.70;99.90;;;;;;5049249;28;20494;-73
2022/09/25 13:27:53;;;;;;;2.60;2.20;;;14.80;99.90;;;;;;5039110;28;20593;-72
2022/09/25 13:30:24;;;;;;;2.70;2.50;;;14.80;99.90;;;;;;5038351;28;20451;-73
2022/09/25 13:32:55;;;;;;;3.40;2.70;;;14.80;99.90;;;;;;5039763;28;20454;-71
2022/09/25 13:35:22;;;;;;;4.23;3.83;;;14.70;99.90;;;;;;5044367;28;20461;-72
2022/09/25 13:37:54;;;;;;;2.93;2.63;;;14.70;99.90;;;;;;5040736;28;20450;-71
2022/09/25 13:40:45;;;;;;;3.20;3.00;;;14.70;99.90;;;;;;5046563;28;20836;-71